Elrick, Iowa
Current Conditions -  °F | °C
As of 4:35 PM on Friday 28 Nov 2014 (Local Time) from KMUT Reporting Station
Clear Clear  
Wind Chill: 30°   Ceiling: Unl
Heat Index: 36°   Visibility: 10mi
Dew Point: 28°   Wind: 7mph
Humidity: 75%   Direction: 130°SE
Pressure: 29.89"   Gusts: NA
Location:  41.1602°N, 91.246°W
Report Text: KMUT 282235Z AUTO 13006KT 10SM CLR 02/M02 A2989 RMK AO2
Loading
Personal Weather Stations






























Interactive Weather Map New forecast layout! Learn more

10-Day Weather Forecast

Advertisements
Track Severe Weather on mobile